Time;durP1;ratioP1;P1;durP2;ratioP2;P2;SDS_P1;SDS_P2;PMS_P1;PMS_P2;Temp;Humidity;BMP_temperature;BMP_pressure;BME280_temperature;BME280_humidity;BME280_pressure;Samples;Min_cycle;Max_cycle;Signal;HPM_P1;HPM_P2
2023/01/24 00:01:29;;;;;;;20.90;12.05;;;3.00;99.90;;;;;;6235532;22;20201;-75
2023/01/24 00:03:54;;;;;;;20.23;11.90;;;3.70;99.90;;;;;;6207965;22;20019;-76
2023/01/24 00:06:20;;;;;;;19.90;11.48;;;2.90;99.90;;;;;;6261057;22;20019;-76
2023/01/24 00:08:52;;;;;;;20.58;12.30;;;2.90;99.90;;;;;;6285562;22;20159;-74
2023/01/24 00:11:18;;;;;;;19.58;12.20;;;2.90;99.90;;;;;;6260032;22;20011;-75
2023/01/24 00:13:43;;;;;;;21.77;11.95;;;2.90;99.90;;;;;;6258847;22;20152;-75
2023/01/24 00:16:18;;;;;;;19.38;11.27;;;3.00;99.90;;;;;;6259326;22;20082;-75
2023/01/24 00:18:44;;;;;;;19.70;11.30;;;3.30;99.90;;;;;;6285893;22;20011;-75
2023/01/24 00:21:22;;;;;;;19.75;10.82;;;3.70;99.90;;;;;;6285680;22;20019;-75
2023/01/24 00:23:51;;;;;;;22.38;12.75;;;3.60;99.90;;;;;;6284754;22;20074;-75
2023/01/24 00:26:21;;;;;;;20.33;11.80;;;2.80;99.90;;;;;;6259242;22;20019;-75
2023/01/24 00:28:49;;;;;;;20.63;11.93;;;3.20;99.90;;;;;;6285411;22;20198;-74
2023/01/24 00:31:15;;;;;;;20.17;12.13;;;2.80;99.90;;;;;;6258530;22;20011;-75
2023/01/24 00:33:41;;;;;;;24.48;13.48;;;3.80;99.90;;;;;;6285169;22;20007;-75
2023/01/24 00:36:07;;;;;;;24.10;13.82;;;2.80;99.90;;;;;;6284708;22;20349;-75
2023/01/24 00:38:33;;;;;;;22.65;13.43;;;2.90;99.90;;;;;;6234515;22;20014;-75
2023/01/24 00:40:59;;;;;;;22.58;12.30;;;2.80;99.90;;;;;;6259612;22;20012;-75
2023/01/24 00:43:26;;;;;;;23.55;13.27;;;2.90;99.90;;;;;;6260310;22;20238;-75
2023/01/24 00:45:55;;;;;;;22.10;13.18;;;2.80;99.90;;;;;;6259860;22;20018;-75
2023/01/24 00:48:21;;;;;;;23.83;13.18;;;4.10;99.90;;;;;;6284908;22;20182;-75
2023/01/24 00:50:46;;;;;;;24.80;12.82;;;2.90;99.90;;;;;;6260574;22;20014;-76
2023/01/24 00:53:12;;;;;;;21.42;13.02;;;2.90;99.90;;;;;;6259664;22;20013;-75
2023/01/24 00:55:46;;;;;;;21.27;13.38;;;2.90;99.90;;;;;;6286007;22;20019;-76
2023/01/24 00:58:12;;;;;;;23.02;13.75;;;3.10;99.90;;;;;;6259448;22;20045;-75
2023/01/24 01:00:38;;;;;;;25.05;14.48;;;3.70;99.90;;;;;;6260321;22;20197;-75
2023/01/24 01:03:05;;;;;;;24.02;13.95;;;3.20;99.90;;;;;;6259636;22;20065;-75
2023/01/24 01:05:31;;;;;;;23.00;13.15;;;4.40;99.90;;;;;;6258602;22;20011;-75
2023/01/24 01:08:02;;;;;;;24.88;13.43;;;3.00;99.90;;;;;;6259716;22;20030;-75
2023/01/24 01:10:56;;;;;;;23.02;13.02;;;2.70;99.90;;;;;;6260794;22;20120;-75
2023/01/24 01:13:26;;;;;;;23.88;14.55;;;3.00;99.90;;;;;;6263239;22;20019;-75
2023/01/24 01:16:02;;;;;;;25.02;14.00;;;2.90;99.90;;;;;;6283807;22;20081;-74
2023/01/24 01:18:33;;;;;;;27.95;14.95;;;3.00;99.90;;;;;;6311021;22;20011;-75
2023/01/24 01:20:59;;;;;;;26.70;14.38;;;3.00;99.90;;;;;;6286474;22;20088;-74
2023/01/24 01:23:25;;;;;;;30.60;16.00;;;3.40;99.90;;;;;;6284348;22;20023;-75
2023/01/24 01:26:01;;;;;;;26.10;15.13;;;2.90;99.90;;;;;;6258818;22;20019;-75
2023/01/24 01:28:26;;;;;;;25.27;14.50;;;3.60;99.90;;;;;;6284747;22;20258;-75
2023/01/24 01:30:58;;;;;;;25.15;14.80;;;3.00;99.90;;;;;;6285494;22;20015;-75
2023/01/24 01:33:27;;;;;;;24.77;15.10;;;3.00;99.90;;;;;;6284656;22;20201;-75
2023/01/24 01:35:53;;;;;;;24.35;14.15;;;3.10;99.90;;;;;;6312322;22;20025;-74
2023/01/24 01:38:20;;;;;;;26.75;14.25;;;4.10;99.90;;;;;;6311927;22;20006;-75
2023/01/24 01:40:48;;;;;;;27.67;15.63;;;2.90;99.90;;;;;;6286952;22;20034;-75
2023/01/24 01:43:22;;;;;;;24.40;14.25;;;2.80;99.90;;;;;;6286115;22;20236;-75
2023/01/24 01:45:51;;;;;;;26.77;14.82;;;3.00;99.90;;;;;;6286453;22;20015;-75
2023/01/24 01:48:24;;;;;;;26.73;15.18;;;2.90;99.90;;;;;;6260395;22;20014;-75
2023/01/24 01:50:57;;;;;;;31.13;16.02;;;2.90;99.90;;;;;;6287569;22;20056;-75
2023/01/24 01:53:33;;;;;;;24.83;14.35;;;3.00;99.90;;;;;;6285758;22;20022;-75
2023/01/24 01:56:09;;;;;;;28.02;15.57;;;2.90;99.90;;;;;;6313327;22;20003;-75
2023/01/24 01:58:36;;;;;;;26.05;15.13;;;3.00;99.90;;;;;;6284623;22;20007;-75
2023/01/24 02:01:02;;;;;;;27.73;14.93;;;3.10;99.90;;;;;;6261504;22;20038;-77
2023/01/24 02:03:38;;;;;;;28.88;15.52;;;3.00;99.90;;;;;;6260854;22;20297;-75
2023/01/24 02:06:23;;;;;;;27.80;16.00;;;3.00;99.90;;;;;;6312239;22;20019;-74
2023/01/24 02:08:51;;;;;;;27.63;15.50;;;2.90;99.90;;;;;;6312318;22;20064;-76
2023/01/24 02:16:59;;;;;;;25.48;14.38;;;3.10;99.90;;;;;;6270425;22;20206;-76
2023/01/24 02:19:52;;;;;;;27.80;16.35;;;2.90;99.90;;;;;;6284309;22;20070;-76
2023/01/24 02:22:49;;;;;;;29.08;14.93;;;2.90;99.90;;;;;;6285725;22;20045;-76
2023/01/24 02:25:41;;;;;;;30.00;15.75;;;3.20;99.90;;;;;;6296843;22;20070;-74
2023/01/24 02:28:08;;;;;;;25.52;14.90;;;3.00;99.90;;;;;;6284823;22;20032;-75
2023/01/24 02:30:35;;;;;;;29.92;16.83;;;3.10;99.90;;;;;;6286488;22;20011;-75
2023/01/24 02:33:09;;;;;;;29.58;16.02;;;3.00;99.90;;;;;;6260984;22;20601;-74
2023/01/24 02:35:35;;;;;;;30.88;16.08;;;3.00;99.90;;;;;;6312384;22;20385;-76
2023/01/24 02:38:06;;;;;;;27.33;15.77;;;3.10;99.90;;;;;;6285358;22;20067;-76
2023/01/24 02:40:32;;;;;;;29.02;15.55;;;3.00;99.90;;;;;;6285730;22;20015;-75
2023/01/24 02:43:05;;;;;;;25.05;14.80;;;3.00;99.90;;;;;;6311354;22;20203;-75
2023/01/24 02:45:36;;;;;;;27.58;14.95;;;3.00;99.90;;;;;;6312268;22;20183;-75
2023/01/24 02:48:02;;;;;;;31.73;16.90;;;2.90;99.90;;;;;;6311571;22;20022;-75
2023/01/24 02:53:28;;;;;;;28.77;15.73;;;3.00;99.90;;;;;;6309503;22;20007;-75
2023/01/24 02:53:29;;;;;;;26.17;15.10;;;4.40;99.90;;;;;;6310786;22;20011;-76
2023/01/24 02:58:54;;;;;;;24.80;14.68;;;3.10;99.90;;;;;;6311385;22;20098;-76
2023/01/24 03:01:22;;;;;;;26.05;15.32;;;3.40;99.90;;;;;;6286034;22;20011;-76
2023/01/24 03:03:49;;;;;;;26.15;14.45;;;4.10;99.90;;;;;;6311772;22;20364;-76
2023/01/24 03:06:16;;;;;;;30.05;16.15;;;4.40;99.90;;;;;;6311530;22;20273;-76
2023/01/24 03:08:44;;;;;;;28.45;15.32;;;4.70;99.90;;;;;;6311270;22;20076;-76
2023/01/24 03:11:13;;;;;;;26.20;14.90;;;3.00;99.90;;;;;;6259613;22;20084;-76
2023/01/24 03:35:36;;;;;;;26.10;15.90;;;3.10;99.90;;;;;;6311510;22;20382;-76
2023/01/24 03:40:52;;;;;;;27.63;15.70;;;4.40;99.90;;;;;;6312816;22;20030;-76
2023/01/24 03:43:17;;;;;;;27.17;14.95;;;3.70;99.90;;;;;;6285831;22;20326;-75
2023/01/24 03:45:43;;;;;;;27.15;15.68;;;3.50;99.90;;;;;;6285771;22;20066;-74
2023/01/24 03:48:12;;;;;;;28.52;15.48;;;3.00;99.90;;;;;;6285201;22;20306;-75
2023/01/24 03:53:26;;;;;;;23.58;13.25;;;3.00;99.90;;;;;;6310966;22;20019;-75
2023/01/24 03:55:54;;;;;;;24.63;14.32;;;3.10;99.90;;;;;;6285341;22;20006;-75
2023/01/24 03:58:21;;;;;;;26.13;15.20;;;4.80;99.90;;;;;;6311286;22;20053;-76
2023/01/24 04:00:47;;;;;;;25.40;14.93;;;3.00;99.90;;;;;;6259512;22;20019;-76
2023/01/24 04:03:13;;;;;;;24.55;14.70;;;3.10;99.90;;;;;;6285681;22;20363;-77
2023/01/24 04:09:15;;;;;;;23.33;14.13;;;3.30;99.90;;;;;;6216037;22;20011;-78
2023/01/24 04:11:40;;;;;;;24.73;13.80;;;3.00;99.90;;;;;;6309278;22;20187;-75
2023/01/24 04:14:06;;;;;;;25.25;13.93;;;3.00;99.90;;;;;;6296027;22;20240;-78
2023/01/24 04:16:32;;;;;;;23.77;14.05;;;3.00;99.90;;;;;;6234971;22;20015;-76
2023/01/24 04:18:58;;;;;;;25.17;14.10;;;3.00;99.90;;;;;;6260246;22;20019;-76
2023/01/24 04:21:23;;;;;;;23.17;14.23;;;4.20;99.90;;;;;;6258684;22;20007;-76
2023/01/24 04:23:49;;;;;;;24.30;14.00;;;3.60;99.90;;;;;;6285153;22;20022;-76
2023/01/24 04:26:14;;;;;;;23.85;13.75;;;3.10;99.90;;;;;;6259652;22;20019;-76
2023/01/24 04:28:40;;;;;;;23.98;14.00;;;3.60;99.90;;;;;;6234291;22;20011;-76
2023/01/24 04:31:06;;;;;;;23.77;14.38;;;3.00;99.90;;;;;;6285071;22;20381;-76
2023/01/24 04:33:31;;;;;;;19.45;12.48;;;3.00;99.90;;;;;;6258381;22;20007;-76
2023/01/24 04:35:58;;;;;;;21.67;12.50;;;3.00;99.90;;;;;;6235511;22;20007;-77
2023/01/24 04:38:24;;;;;;;18.35;11.60;;;3.00;99.90;;;;;;6259845;22;20015;-75
2023/01/24 04:40:58;;;;;;;20.98;12.65;;;4.20;99.90;;;;;;6258701;22;20025;-75
2023/01/24 04:43:24;;;;;;;20.15;12.57;;;3.20;99.90;;;;;;6233348;22;20237;-75
2023/01/24 04:45:49;;;;;;;21.27;12.98;;;3.00;99.90;;;;;;6285036;22;20057;-74
2023/01/24 04:48:15;;;;;;;20.83;12.38;;;3.00;99.90;;;;;;6258545;22;20266;-74
2023/01/24 04:50:41;;;;;;;18.83;12.38;;;3.70;99.90;;;;;;6256263;22;20078;-75
2023/01/24 04:53:06;;;;;;;20.98;12.85;;;3.10;99.90;;;;;;6258188;22;20167;-76
2023/01/24 04:55:34;;;;;;;20.13;12.60;;;3.00;99.90;;;;;;6258283;22;20007;-76
2023/01/24 04:58:00;;;;;;;21.58;13.05;;;3.10;99.90;;;;;;6283557;22;20035;-76
2023/01/24 05:00:25;;;;;;;21.00;12.65;;;3.10;99.90;;;;;;6259095;22;20022;-76
2023/01/24 05:02:51;;;;;;;21.55;13.18;;;3.00;99.90;;;;;;6284970;22;20034;-76
2023/01/24 05:05:17;;;;;;;20.60;12.95;;;3.10;99.90;;;;;;6285545;22;20226;-76
2023/01/24 05:07:43;;;;;;;20.67;12.20;;;2.90;99.90;;;;;;6234645;22;20179;-73
2023/01/24 05:10:09;;;;;;;20.92;11.75;;;3.10;99.90;;;;;;6261360;22;20018;-75
2023/01/24 05:12:34;;;;;;;20.45;11.95;;;2.90;99.90;;;;;;6260417;22;20019;-75
2023/01/24 05:15:00;;;;;;;20.95;11.50;;;2.90;99.90;;;;;;6286246;22;20070;-75
2023/01/24 05:17:26;;;;;;;20.45;11.43;;;3.00;99.90;;;;;;6286808;22;20092;-75
2023/01/24 05:19:51;;;;;;;21.83;12.90;;;3.10;99.90;;;;;;6287657;22;20008;-75
2023/01/24 05:22:17;;;;;;;21.75;12.57;;;4.80;99.90;;;;;;6310514;22;20019;-75
2023/01/24 05:24:43;;;;;;;20.20;12.20;;;3.40;99.90;;;;;;6261518;22;20011;-75
2023/01/24 05:27:08;;;;;;;21.05;12.35;;;2.90;99.90;;;;;;6262053;22;20175;-75
2023/01/24 05:29:34;;;;;;;19.60;12.30;;;2.90;99.90;;;;;;6286335;22;20019;-76
2023/01/24 05:32:00;;;;;;;21.92;12.57;;;2.90;99.90;;;;;;6286053;22;20282;-76
2023/01/24 05:34:25;;;;;;;19.70;12.23;;;2.90;99.90;;;;;;6261252;22;20102;-76
2023/01/24 05:36:51;;;;;;;21.30;12.93;;;3.10;99.90;;;;;;6287413;22;20006;-76
2023/01/24 05:39:17;;;;;;;17.65;11.80;;;3.10;99.90;;;;;;6287731;22;20293;-77
2023/01/24 05:41:42;;;;;;;21.67;12.70;;;2.90;99.90;;;;;;6313304;22;20309;-75
2023/01/24 05:44:08;;;;;;;22.05;13.45;;;3.30;99.90;;;;;;6285401;22;20119;-75
2023/01/24 05:46:34;;;;;;;24.75;14.05;;;3.70;99.90;;;;;;6261808;22;20162;-75
2023/01/24 05:48:59;;;;;;;22.48;13.10;;;2.90;99.90;;;;;;6286612;22;20018;-75
2023/01/24 05:51:25;;;;;;;19.80;12.15;;;3.20;99.90;;;;;;6261355;22;20025;-75
2023/01/24 05:53:51;;;;;;;24.90;13.23;;;2.90;99.90;;;;;;6311918;22;20015;-75
2023/01/24 05:56:18;;;;;;;19.67;12.45;;;2.80;99.90;;;;;;6287469;22;20046;-74
2023/01/24 05:58:45;;;;;;;20.90;13.90;;;2.80;99.90;;;;;;6286732;22;20034;-76
2023/01/24 06:01:18;;;;;;;21.65;13.38;;;2.80;99.90;;;;;;6287265;22;20314;-75
2023/01/24 06:03:45;;;;;;;24.77;14.75;;;2.90;99.90;;;;;;6285791;22;20066;-76
2023/01/24 06:06:13;;;;;;;28.88;17.85;;;2.80;99.90;;;;;;6313126;22;20198;-76
2023/01/24 06:08:39;;;;;;;25.77;15.73;;;2.80;99.90;;;;;;6287014;22;20075;-76
2023/01/24 06:11:20;;;;;;;26.05;15.75;;;2.80;99.90;;;;;;6286753;22;20159;-76
2023/01/24 06:13:46;;;;;;;20.90;12.77;;;2.80;99.90;;;;;;6284200;22;20038;-75
2023/01/24 06:16:20;;;;;;;23.40;13.98;;;2.80;99.90;;;;;;6313087;22;20027;-76
2023/01/24 06:18:47;;;;;;;22.50;13.73;;;2.30;99.90;;;;;;6287028;22;20035;-76
2023/01/24 06:21:46;;;;;;;27.05;14.65;;;4.70;99.90;;;;;;6286731;22;20075;-76
2023/01/24 06:24:20;;;;;;;25.50;13.82;;;2.80;99.90;;;;;;6285828;22;20011;-75
2023/01/24 06:26:47;;;;;;;22.25;13.73;;;2.80;99.90;;;;;;6312161;22;20019;-75
2023/01/24 06:29:13;;;;;;;26.30;15.30;;;2.80;99.90;;;;;;6287301;22;20065;-75
2023/01/24 06:32:12;;;;;;;24.10;14.10;;;2.80;99.90;;;;;;6286484;22;20019;-75
2023/01/24 06:35:30;;;;;;;23.42;14.25;;;2.70;99.90;;;;;;6285139;22;20434;-75
2023/01/24 06:37:57;;;;;;;23.35;14.65;;;2.70;99.90;;;;;;6198528;22;20038;-75
2023/01/24 06:40:24;;;;;;;23.58;14.63;;;2.70;99.90;;;;;;6312421;22;20378;-75
2023/01/24 06:42:51;;;;;;;23.63;14.60;;;2.70;99.90;;;;;;6285489;22;20059;-75
2023/01/24 06:45:17;;;;;;;23.77;14.10;;;2.70;99.90;;;;;;6312275;22;20098;-74
2023/01/24 06:47:43;;;;;;;24.92;14.57;;;2.80;99.90;;;;;;6286783;22;20191;-75
2023/01/24 06:50:38;;;;;;;21.60;12.57;;;2.70;99.90;;;;;;6287223;22;20011;-76
2023/01/24 06:53:04;;;;;;;23.63;12.95;;;2.70;99.90;;;;;;6229720;22;20019;-75
2023/01/24 06:55:31;;;;;;;21.80;13.77;;;3.70;99.90;;;;;;6285133;22;20050;-74
2023/01/24 06:57:57;;;;;;;19.55;12.50;;;2.70;99.90;;;;;;6312356;22;20194;-75
2023/01/24 07:00:24;;;;;;;21.65;12.00;;;2.70;99.90;;;;;;6286414;22;20007;-74
2023/01/24 07:03:06;;;;;;;18.33;11.75;;;2.60;99.90;;;;;;6286436;22;20015;-74
2023/01/24 07:05:32;;;;;;;22.33;12.13;;;2.70;99.90;;;;;;6311898;22;20018;-75
2023/01/24 07:07:58;;;;;;;19.77;11.60;;;2.60;99.90;;;;;;6312287;22;20018;-74
2023/01/24 07:10:24;;;;;;;19.80;11.77;;;3.10;99.90;;;;;;6260823;22;20063;-75
2023/01/24 07:12:50;;;;;;;19.50;12.00;;;2.70;99.90;;;;;;6261872;22;20015;-74
2023/01/24 07:15:16;;;;;;;19.70;11.60;;;2.60;99.90;;;;;;6290404;22;20034;-74
2023/01/24 07:17:42;;;;;;;19.92;12.82;;;3.20;99.90;;;;;;6315663;22;20105;-74
2023/01/24 07:20:22;;;;;;;17.83;11.40;;;2.70;99.90;;;;;;6317871;22;20061;-75
2023/01/24 07:23:03;;;;;;;20.85;12.18;;;4.20;99.90;;;;;;6293010;22;20037;-74
2023/01/24 07:25:30;;;;;;;18.25;11.57;;;2.70;99.90;;;;;;6315585;22;20192;-74
2023/01/24 07:27:56;;;;;;;20.88;11.98;;;2.80;99.90;;;;;;6317001;22;20018;-75
2023/01/24 07:34:07;;;;;;;17.95;11.32;;;0.70;99.90;;;;;;6259688;22;20023;-75
2023/01/24 07:37:38;;;;;;;;;;;;;;;;;;;;;
2023/01/24 07:40:17;;;;;;;18.50;11.05;;;3.50;99.90;;;;;;6290668;22;20019;-69
2023/01/24 07:43:53;;;;;;;17.55;10.60;;;3.00;99.90;;;;;;6263399;22;20010;-74
2023/01/24 07:47:36;;;;;;;15.60;9.48;;;2.70;99.90;;;;;;6154713;23;20107;-74
2023/01/24 07:51:03;;;;;;;18.25;10.60;;;3.70;99.90;;;;;;6134775;23;20019;-75
2023/01/24 07:53:38;;;;;;;16.27;10.48;;;3.10;99.90;;;;;;6198252;23;20016;-75
2023/01/24 07:56:05;;;;;;;15.88;9.93;;;3.40;99.90;;;;;;6198558;23;20012;-74
2023/01/24 07:58:34;;;;;;;15.80;9.48;;;2.70;99.90;;;;;;6246119;22;20301;-75
2023/01/24 08:01:02;;;;;;;15.65;9.25;;;3.00;99.90;;;;;;6261816;22;20007;-75
2023/01/24 08:03:33;;;;;;;16.90;10.43;;;2.60;99.90;;;;;;6258597;22;20026;-76
2023/01/24 08:06:20;;;;;;;15.35;8.98;;;2.70;99.90;;;;;;6232570;22;20047;-78
2023/01/24 08:09:28;;;;;;;;;;;;;;;;;;;;;
2023/01/24 08:15:51;;;;;;;17.77;10.80;;;1.90;99.90;;;;;;6068331;23;20030;-74
2023/01/24 08:22:41;;;;;;;12.40;7.18;;;2.30;99.90;;;;;;6157246;23;20016;-73
2023/01/24 08:25:34;;;;;;;14.48;8.55;;;3.00;99.90;;;;;;6165368;22;20069;-73
2023/01/24 08:28:25;;;;;;;15.57;9.57;;;2.60;99.90;;;;;;6282780;22;20080;-75
2023/01/24 08:30:51;;;;;;;12.25;7.10;;;3.60;99.90;;;;;;6244759;22;20017;-75
2023/01/24 08:37:33;;;;;;;14.82;8.82;;;2.90;99.90;;;;;;6200970;23;20269;-74
2023/01/24 08:40:16;;;;;;;15.55;9.82;;;3.20;99.90;;;;;;6097683;23;20180;-74
2023/01/24 08:43:01;;;;;;;15.75;9.00;;;2.80;99.90;;;;;;6146177;23;20012;-75
2023/01/24 08:46:02;;;;;;;13.93;8.52;;;0.90;99.90;;;;;;6195483;23;20510;-74
2023/01/24 08:48:28;;;;;;;14.13;8.95;;;2.80;99.90;;;;;;6095806;23;20038;-74
2023/01/24 08:51:59;;;;;;;;;;;;;;;;;;;;;
2023/01/24 08:54:54;;;;;;;16.90;9.70;;;3.10;99.90;;;;;;6067528;23;20257;-74
2023/01/24 08:57:41;;;;;;;15.60;8.90;;;2.40;99.90;;;;;;6088031;23;20014;-73
2023/01/24 09:00:08;;;;;;;12.55;7.93;;;1.80;99.90;;;;;;6071471;23;20042;-73
2023/01/24 09:03:23;;;;;;;12.90;7.55;;;2.70;99.90;;;;;;6097442;23;20014;-74
2023/01/24 09:05:58;;;;;;;13.90;8.45;;;2.70;99.90;;;;;;6174212;23;20020;-73
2023/01/24 09:12:07;;;;;;;13.02;8.05;;;2.10;99.90;;;;;;6108801;23;20104;-75
2023/01/24 09:18:32;;;;;;;12.80;8.70;;;4.10;99.90;;;;;;6175034;23;20019;-73
2023/01/24 09:21:51;;;;;;;15.05;9.50;;;2.70;99.90;;;;;;6161054;23;20315;-73
2023/01/24 09:24:25;;;;;;;13.25;8.18;;;4.80;99.90;;;;;;6161690;23;20013;-74
2023/01/24 09:27:02;;;;;;;12.90;7.97;;;2.90;99.90;;;;;;6138561;23;20047;-74
2023/01/24 09:29:27;;;;;;;13.10;8.63;;;2.80;99.90;;;;;;6177610;22;20019;-74
2023/01/24 09:31:54;;;;;;;14.27;7.90;;;3.60;99.90;;;;;;6233312;22;20046;-74
2023/01/24 09:35:18;;;;;;;;;;;;;;;;;;;;;
2023/01/24 09:37:47;;;;;;;12.70;7.80;;;3.20;99.90;;;;;;6283390;22;20056;-74
2023/01/24 09:41:01;;;;;;;13.35;7.85;;;2.90;99.90;;;;;;6257807;22;20059;-74
2023/01/24 09:44:41;;;;;;;;;;;;;;;;;;;;;
2023/01/24 09:47:59;;;;;;;13.75;7.80;;;2.70;99.90;;;;;;6284818;22;20011;-73
2023/01/24 09:51:13;;;;;;;;;;;;;;;;;;;;;
2023/01/24 09:54:37;;;;;;;13.90;8.73;;;5.10;99.90;;;;;;6282254;22;20058;-74
2023/01/24 09:57:36;;;;;;;14.38;8.77;;;3.30;99.90;;;;;;6132926;23;20049;-72
2023/01/24 10:00:18;;;;;;;14.63;9.18;;;1.70;99.90;;;;;;6133358;23;20016;-74
2023/01/24 10:10:18;;;;;;;13.57;8.18;;;3.00;99.90;;;;;;6217645;23;20007;-73
2023/01/24 10:13:03;;;;;;;;;;;3.30;99.90;;;;;;6125687;23;20024;-75
2023/01/24 10:15:59;;;;;;;13.75;8.43;;;3.10;99.90;;;;;;6193462;23;19907;-74
2023/01/24 10:18:49;;;;;;;14.75;8.60;;;3.10;99.90;;;;;;6154974;23;20021;-74
2023/01/24 10:21:33;;;;;;;13.50;8.10;;;3.10;99.90;;;;;;6188630;23;20052;-76
2023/01/24 10:25:06;;;;;;;14.13;8.50;;;3.60;99.90;;;;;;6271428;22;20007;-74
2023/01/24 10:27:45;;;;;;;15.15;8.38;;;3.00;99.90;;;;;;6278882;22;20034;-76
2023/01/24 10:30:49;;;;;;;13.68;8.30;;;3.40;99.90;;;;;;6260025;22;20016;-75
2023/01/24 10:33:18;;;;;;;13.63;8.43;;;1.90;99.90;;;;;;6198587;22;20011;-75
2023/01/24 10:36:21;;;;;;;13.05;8.15;;;3.60;99.90;;;;;;6285055;22;20011;-75
2023/01/24 10:38:47;;;;;;;13.57;8.52;;;3.10;99.90;;;;;;6260127;22;20234;-76
2023/01/24 10:41:22;;;;;;;14.93;9.73;;;3.00;99.90;;;;;;6259912;22;20022;-76
2023/01/24 10:44:26;;;;;;;15.23;8.57;;;3.00;99.90;;;;;;6262800;22;20058;-77
2023/01/24 10:47:29;;;;;;;14.70;8.60;;;3.00;99.90;;;;;;6310799;22;20022;-76
2023/01/24 10:50:18;;;;;;;15.00;9.40;;;3.10;99.90;;;;;;6259508;22;20015;-75
2023/01/24 10:53:13;;;;;;;13.30;8.73;;;3.10;99.90;;;;;;6258461;22;20019;-75
2023/01/24 10:55:50;;;;;;;16.38;9.32;;;3.60;99.90;;;;;;6285810;22;20043;-75
2023/01/24 10:59:17;;;;;;;13.40;8.02;;;3.10;99.90;;;;;;6260135;22;20194;-76
2023/01/24 11:06:00;;;;;;;14.25;8.85;;;2.40;99.90;;;;;;6167310;23;20016;-78
2023/01/24 11:09:19;;;;;;;12.90;8.25;;;2.00;99.90;;;;;;6137614;23;20052;-75
2023/01/24 11:12:35;;;;;;;13.35;8.32;;;0.70;99.90;;;;;;6093056;23;20080;-77
2023/01/24 11:15:17;;;;;;;14.52;8.65;;;3.10;99.90;;;;;;6266167;22;20018;-76
2023/01/24 11:18:22;;;;;;;18.40;8.95;;;3.10;99.90;;;;;;6289848;22;20015;-75
2023/01/24 11:21:09;;;;;;;17.17;8.50;;;2.50;99.90;;;;;;6235254;22;20191;-75
2023/01/24 11:23:40;;;;;;;13.55;8.52;;;3.10;99.90;;;;;;6311401;22;20026;-74
2023/01/24 11:26:23;;;;;;;14.25;9.05;;;3.00;99.90;;;;;;6284292;22;20011;-74
2023/01/24 11:33:15;;;;;;;13.80;8.38;;;1.90;99.90;;;;;;6221865;22;20079;-74
2023/01/24 11:40:02;;;;;;;14.07;8.90;;;2.20;99.90;;;;;;6311030;22;20031;-75
2023/01/24 11:43:31;;;;;;;16.55;8.80;;;3.20;99.90;;;;;;6282012;22;20298;-75
2023/01/24 11:46:58;;;;;;;16.67;10.10;;;3.20;99.90;;;;;;6162659;23;20220;-74
2023/01/24 11:49:40;;;;;;;14.68;8.65;;;3.10;99.90;;;;;;6155636;23;20013;-74
2023/01/24 11:56:04;;;;;;;15.73;10.07;;;3.70;99.90;;;;;;6153176;23;20383;-75
2023/01/24 11:59:09;;;;;;;15.43;9.65;;;2.10;99.90;;;;;;6161576;23;20203;-73
2023/01/24 12:01:58;;;;;;;15.43;9.23;;;3.40;99.90;;;;;;6160774;23;20512;-75
2023/01/24 12:15:54;;;;;;;14.88;9.30;;;3.40;99.90;;;;;;6161858;23;20021;-76
2023/01/24 12:29:28;;;;;;;16.17;9.80;;;3.10;99.90;;;;;;5137393;27;20448;-74
2023/01/24 12:35:57;;;;;;;15.80;9.60;;;1.80;99.90;;;;;;5073775;28;20032;-73
2023/01/24 12:38:47;;;;;;;18.65;10.55;;;3.70;99.90;;;;;;5106416;28;20035;-74
2023/01/24 12:42:02;;;;;;;15.07;9.10;;;3.00;99.90;;;;;;5098865;27;20034;-74
2023/01/24 12:45:38;;;;;;;29.25;9.85;;;2.30;99.90;;;;;;5020575;28;20041;-74
2023/01/24 12:52:07;;;;;;;;;;;;;;;;;;;;;
2023/01/24 13:02:50;;;;;;;16.50;10.23;;;0.90;99.90;;;;;;5027150;28;20087;-73
2023/01/24 13:09:32;;;;;;;16.45;9.95;;;2.10;99.90;;;;;;4976840;28;20043;-74
2023/01/24 13:12:03;;;;;;;18.25;10.30;;;3.00;99.90;;;;;;4955631;28;20109;-74
2023/01/24 13:18:56;;;;;;;17.83;10.73;;;1.80;99.90;;;;;;4997404;28;20045;-74
2023/01/24 13:21:57;;;;;;;16.60;10.30;;;3.20;99.90;;;;;;5031626;28;20289;-74
2023/01/24 13:28:07;;;;;;;18.33;11.10;;;3.50;99.90;;;;;;5139915;27;20078;-74
2023/01/24 13:30:54;;;;;;;17.13;10.57;;;5.70;99.90;;;;;;5102535;27;20321;-73
2023/01/24 13:34:02;;;;;;;20.33;11.70;;;3.00;99.90;;;;;;5123478;27;20042;-75
2023/01/24 13:48:37;;;;;;;21.98;11.88;;;4.30;99.90;;;;;;4912931;29;20032;-76
2023/01/24 13:59:54;;;;;;;19.27;11.23;;;3.10;99.90;;;;;;4907332;29;20061;-75
2023/01/24 14:03:07;;;;;;;17.83;10.45;;;5.50;99.90;;;;;;4879528;29;20488;-76
2023/01/24 14:06:34;;;;;;;18.83;10.45;;;3.00;99.90;;;;;;4930513;29;20065;-75
2023/01/24 14:17:48;;;;;;;19.92;11.50;;;3.20;99.90;;;;;;4873149;29;20092;-75
2023/01/24 14:20:38;;;;;;;22.00;12.27;;;3.00;99.90;;;;;;4963910;28;20048;-74
2023/01/24 14:23:25;;;;;;;18.83;10.27;;;5.20;99.90;;;;;;4979962;28;20061;-75
2023/01/24 14:26:34;;;;;;;20.08;12.38;;;3.80;99.90;;;;;;4985724;28;20032;-75
2023/01/24 14:29:15;;;;;;;23.75;12.65;;;2.00;99.90;;;;;;4978322;28;20058;-75
2023/01/24 14:35:22;;;;;;;20.00;12.43;;;1.70;99.90;;;;;;5093847;27;20050;-75
2023/01/24 14:38:26;;;;;;;20.97;12.97;;;2.80;99.90;;;;;;5105423;27;20035;-77
2023/01/24 14:48:25;;;;;;;21.88;12.63;;;1.80;99.90;;;;;;5035280;28;20320;-75
2023/01/24 14:51:06;;;;;;;19.85;12.20;;;2.60;99.90;;;;;;5024848;28;20037;-75
2023/01/24 14:54:37;;;;;;;20.50;12.82;;;2.70;99.90;;;;;;5095337;27;20281;-75
2023/01/24 14:57:20;;;;;;;18.73;11.55;;;1.90;99.90;;;;;;5003558;28;20096;-75
2023/01/24 15:00:11;;;;;;;27.15;12.30;;;2.80;99.90;;;;;;5021014;28;20335;-74
2023/01/24 15:02:53;;;;;;;24.13;13.68;;;2.60;99.90;;;;;;5092414;27;20080;-75
2023/01/24 15:13:41;;;;;;;21.02;12.80;;;2.80;99.90;;;;;;5020201;28;20051;-77
2023/01/24 15:16:28;;;;;;;19.98;11.95;;;2.70;99.90;;;;;;5028156;28;20231;-76
2023/01/24 15:26:59;;;;;;;19.42;11.35;;;3.80;99.90;;;;;;4871637;28;20314;-74
2023/01/24 15:30:24;;;;;;;21.60;14.13;;;3.00;99.90;;;;;;4945380;28;20054;-75
2023/01/24 15:32:56;;;;;;;21.10;12.88;;;2.30;99.90;;;;;;4961484;28;20147;-75
2023/01/24 15:35:43;;;;;;;23.10;13.98;;;3.20;99.90;;;;;;4968009;28;20037;-75
2023/01/24 15:38:45;;;;;;;19.92;13.20;;;3.10;99.90;;;;;;5066416;28;20040;-75
2023/01/24 15:41:11;;;;;;;19.30;11.30;;;3.00;99.90;;;;;;5057716;28;20104;-76
2023/01/24 15:44:08;;;;;;;22.23;12.52;;;2.90;99.90;;;;;;5069682;28;20037;-75
2023/01/24 15:53:47;;;;;;;21.38;13.30;;;2.40;99.90;;;;;;4919313;29;20087;-75
2023/01/24 15:56:33;;;;;;;20.23;10.85;;;2.80;99.90;;;;;;4940484;29;20035;-75
2023/01/24 16:06:14;;;;;;;23.00;14.80;;;1.70;99.90;;;;;;4941191;28;20069;-73
2023/01/24 16:08:39;;;;;;;20.25;11.48;;;1.00;99.90;;;;;;5050473;28;20533;-74
2023/01/24 16:11:18;;;;;;;22.92;14.57;;;2.10;99.90;;;;;;5025923;28;20067;-73
2023/01/24 16:13:56;;;;;;;19.80;12.15;;;2.90;99.90;;;;;;5017588;28;20201;-75
2023/01/24 16:16:23;;;;;;;21.95;13.60;;;2.00;99.90;;;;;;5054119;28;20085;-74
2023/01/24 16:18:54;;;;;;;23.08;14.82;;;2.10;99.90;;;;;;5056908;28;20064;-75
2023/01/24 16:21:51;;;;;;;21.42;13.05;;;2.10;99.90;;;;;;5034081;28;20241;-74
2023/01/24 16:24:20;;;;;;;20.52;12.90;;;3.20;99.90;;;;;;5034241;28;20171;-74
2023/01/24 16:26:53;;;;;;;22.52;13.63;;;2.50;99.90;;;;;;5056843;28;20045;-74
2023/01/24 16:29:28;;;;;;;24.00;14.38;;;2.90;99.90;;;;;;5075835;28;20052;-75
2023/01/24 16:31:54;;;;;;;22.95;13.32;;;3.90;99.90;;;;;;5091786;28;20065;-75
2023/01/24 16:34:21;;;;;;;21.92;13.60;;;2.20;99.90;;;;;;5069775;28;20039;-71
2023/01/24 16:36:49;;;;;;;24.08;14.27;;;2.20;99.90;;;;;;5068947;28;20081;-75
2023/01/24 16:39:18;;;;;;;23.23;14.93;;;2.00;99.90;;;;;;5099778;28;20032;-74
2023/01/24 16:41:59;;;;;;;23.92;15.00;;;1.90;99.90;;;;;;5080949;28;20043;-75
2023/01/24 16:44:37;;;;;;;;;;;;;;;;;;;;;
2023/01/24 16:47:34;;;;;;;19.58;12.40;;;3.90;99.90;;;;;;5097014;28;20028;-74
2023/01/24 16:50:21;;;;;;;19.25;10.82;;;3.00;99.90;;;;;;5068567;28;20032;-74
2023/01/24 16:52:47;;;;;;;20.75;13.27;;;0.00;99.90;;;;;;5080492;28;20419;-74
2023/01/24 16:55:13;;;;;;;21.38;12.98;;;4.30;99.90;;;;;;5097735;28;20044;-74
2023/01/24 16:57:39;;;;;;;21.27;12.40;;;1.90;99.90;;;;;;5099821;28;20052;-74
2023/01/24 17:00:15;;;;;;;17.77;11.27;;;3.00;99.90;;;;;;5084125;28;20265;-73
2023/01/24 17:02:49;;;;;;;20.20;11.70;;;1.80;99.90;;;;;;5077195;28;20318;-73
2023/01/24 17:05:16;;;;;;;20.88;12.48;;;1.80;99.90;;;;;;5082797;28;20033;-73
2023/01/24 17:07:42;;;;;;;21.88;12.50;;;1.80;99.90;;;;;;5088006;28;20091;-73
2023/01/24 17:10:18;;;;;;;18.90;11.52;;;3.00;99.90;;;;;;5104104;28;20075;-74
2023/01/24 17:12:44;;;;;;;21.80;13.77;;;2.00;99.90;;;;;;5116021;28;20034;-74